createdAt,value
2023-06-29T00:02:13.092Z,19.40
2023-06-29T00:04:42.811Z,19.35
2023-06-29T00:07:10.682Z,19.33
2023-06-29T00:09:38.544Z,19.34
2023-06-29T00:12:10.101Z,19.29
2023-06-29T00:14:37.895Z,19.23
2023-06-29T00:17:07.328Z,19.16
2023-06-29T00:19:36.405Z,19.12
2023-06-29T00:22:04.281Z,19.06
2023-06-29T00:24:32.047Z,19.03
2023-06-29T00:26:59.948Z,18.99
2023-06-29T00:29:27.831Z,18.99
2023-06-29T00:31:55.628Z,19.01
2023-06-29T00:34:24.729Z,18.96
2023-06-29T00:36:52.477Z,18.98
2023-06-29T00:39:23.111Z,18.97
2023-06-29T00:41:54.375Z,18.93
2023-06-29T00:44:22.134Z,18.87
2023-06-29T00:46:51.422Z,18.83
2023-06-29T00:49:20.454Z,18.84
2023-06-29T00:51:51.719Z,18.85
2023-06-29T00:54:19.807Z,18.88
2023-06-29T00:56:48.045Z,18.87
2023-06-29T00:59:15.940Z,18.86
2023-06-29T01:01:45.427Z,18.87
2023-06-29T01:04:25.941Z,18.81
2023-06-29T01:07:02.055Z,18.76
2023-06-29T01:09:31.832Z,18.73
2023-06-29T01:12:01.040Z,18.74
2023-06-29T01:14:30.680Z,18.75
2023-06-29T01:16:59.634Z,18.76
2023-06-29T01:19:30.931Z,18.74
2023-06-29T01:22:04.297Z,18.70
2023-06-29T01:24:39.355Z,18.65
2023-06-29T01:27:08.694Z,18.64
2023-06-29T01:29:36.806Z,18.67
2023-06-29T01:32:05.237Z,18.66
2023-06-29T01:34:34.171Z,18.63
2023-06-29T01:37:07.018Z,18.63
2023-06-29T01:39:42.730Z,18.61
2023-06-29T01:42:11.958Z,18.60
2023-06-29T01:44:39.839Z,18.57
2023-06-29T01:47:09.481Z,18.54
2023-06-29T01:49:38.667Z,18.57
2023-06-29T01:52:07.643Z,18.51
2023-06-29T01:54:36.827Z,18.56
2023-06-29T01:57:07.021Z,18.53
2023-06-29T01:59:35.329Z,18.58
2023-06-29T02:02:03.746Z,18.52
2023-06-29T02:04:31.495Z,18.45
2023-06-29T02:07:01.762Z,18.37
2023-06-29T02:09:29.603Z,18.24
2023-06-29T02:11:58.844Z,18.25
2023-06-29T02:14:26.654Z,18.18
2023-06-29T02:16:54.377Z,18.13
2023-06-29T02:19:22.101Z,18.10
2023-06-29T02:21:49.834Z,18.05
2023-06-29T02:24:17.624Z,18.01
2023-06-29T02:26:45.478Z,18.04
2023-06-29T02:29:15.665Z,18.01
2023-06-29T02:31:43.443Z,18.00
2023-06-29T02:34:11.351Z,17.97
2023-06-29T02:36:40.410Z,17.95
2023-06-29T02:39:08.477Z,17.95
2023-06-29T02:41:36.206Z,17.91
2023-06-29T02:44:04.000Z,17.88
2023-06-29T02:46:33.108Z,17.87
2023-06-29T02:49:00.936Z,17.89
2023-06-29T02:51:28.663Z,17.90
2023-06-29T02:53:56.429Z,17.91
2023-06-29T02:56:24.202Z,17.95
2023-06-29T02:58:51.996Z,17.96
2023-06-29T03:01:19.822Z,17.93
2023-06-29T03:03:48.990Z,17.89
2023-06-29T03:06:16.749Z,17.77
2023-06-29T03:08:44.532Z,17.72
2023-06-29T03:11:12.337Z,17.64
2023-06-29T03:13:40.085Z,17.49
2023-06-29T03:16:10.290Z,17.42
2023-06-29T03:18:38.804Z,17.46
2023-06-29T03:21:17.589Z,17.45
2023-06-29T03:23:46.022Z,17.38
2023-06-29T03:26:13.805Z,17.35
2023-06-29T03:28:41.704Z,17.32
2023-06-29T03:31:09.438Z,17.30
2023-06-29T03:33:37.243Z,17.30
2023-06-29T03:36:06.016Z,17.27
2023-06-29T03:38:35.464Z,17.27
2023-06-29T03:41:03.259Z,17.29
2023-06-29T03:43:31.011Z,17.28
2023-06-29T03:46:00.011Z,17.32
2023-06-29T03:48:28.859Z,17.34
2023-06-29T03:50:57.697Z,17.37
2023-06-29T03:53:25.539Z,17.40
2023-06-29T03:55:54.750Z,17.42
2023-06-29T03:58:22.666Z,17.48
2023-06-29T04:00:51.949Z,17.51
2023-06-29T04:03:19.828Z,17.51
2023-06-29T04:05:47.810Z,17.51
2023-06-29T04:08:15.634Z,17.52
2023-06-29T04:10:43.436Z,17.52
2023-06-29T04:13:12.586Z,17.51
2023-06-29T04:15:40.384Z,17.55
2023-06-29T04:18:08.997Z,17.54
2023-06-29T04:20:38.098Z,17.52
2023-06-29T04:23:05.824Z,17.55
2023-06-29T04:25:34.281Z,17.52
2023-06-29T04:28:02.043Z,17.55
2023-06-29T04:30:31.218Z,17.63
2023-06-29T04:33:04.286Z,17.71
2023-06-29T04:35:32.098Z,17.80
2023-06-29T04:38:00.377Z,17.88
2023-06-29T04:40:28.201Z,17.96
2023-06-29T04:42:58.774Z,18.04
2023-06-29T04:45:27.592Z,18.16
2023-06-29T04:47:57.462Z,18.24
2023-06-29T04:50:27.265Z,18.32
2023-06-29T04:52:55.446Z,18.42
2023-06-29T04:55:23.465Z,18.51
2023-06-29T04:57:51.335Z,18.61
2023-06-29T05:00:20.675Z,18.71
2023-06-29T05:02:48.643Z,18.81
2023-06-29T05:05:18.137Z,18.89
2023-06-29T05:07:45.975Z,18.98
2023-06-29T05:10:13.841Z,19.04
2023-06-29T05:12:41.729Z,19.08
2023-06-29T05:15:10.806Z,19.13
2023-06-29T05:17:38.829Z,19.17
2023-06-29T05:20:07.774Z,19.23
2023-06-29T05:22:37.239Z,19.34
2023-06-29T05:25:05.705Z,19.38
2023-06-29T05:27:33.537Z,19.43
2023-06-29T05:30:02.024Z,19.52
2023-06-29T05:32:29.877Z,19.60
2023-06-29T05:34:57.748Z,19.65
2023-06-29T05:37:25.966Z,19.69
2023-06-29T05:39:55.820Z,19.72
2023-06-29T05:42:23.620Z,19.77
2023-06-29T05:44:51.284Z,19.82
2023-06-29T05:47:20.165Z,19.88
2023-06-29T05:49:48.000Z,19.93
2023-06-29T05:52:15.783Z,20.00
2023-06-29T05:54:43.559Z,20.07
2023-06-29T05:57:12.751Z,20.13
2023-06-29T05:59:40.517Z,20.15
2023-06-29T06:02:08.614Z,20.22
2023-06-29T06:04:36.662Z,20.28
2023-06-29T06:07:04.875Z,20.37
2023-06-29T06:09:32.818Z,20.38
2023-06-29T06:12:00.730Z,20.45
2023-06-29T06:14:29.833Z,20.52
2023-06-29T06:16:57.663Z,20.64
2023-06-29T06:19:25.383Z,20.76
2023-06-29T06:21:53.225Z,20.85
2023-06-29T06:24:21.021Z,20.94
2023-06-29T06:26:48.777Z,21.00
2023-06-29T06:29:16.611Z,21.11
2023-06-29T06:31:45.862Z,21.24
2023-06-29T06:34:13.636Z,21.34
2023-06-29T06:36:41.406Z,21.40
2023-06-29T06:39:09.834Z,21.44
2023-06-29T06:41:37.622Z,21.51
2023-06-29T06:44:05.837Z,21.53
2023-06-29T06:46:36.281Z,21.63
2023-06-29T06:49:05.480Z,21.78
2023-06-29T06:51:33.310Z,21.83
2023-06-29T06:54:01.154Z,21.96
2023-06-29T06:56:28.970Z,22.05
2023-06-29T06:58:56.818Z,22.03
2023-06-29T07:01:25.921Z,22.16
2023-06-29T07:03:54.066Z,22.31
2023-06-29T07:06:23.251Z,22.48
2023-06-29T07:08:51.158Z,22.60
2023-06-29T07:11:19.068Z,22.72
2023-06-29T07:13:46.931Z,22.71
2023-06-29T07:16:14.816Z,22.84
2023-06-29T07:19:02.488Z,22.98
2023-06-29T07:21:31.697Z,23.07
2023-06-29T07:26:30.547Z,23.29
2023-06-29T07:28:58.346Z,23.38
2023-06-29T07:31:26.816Z,23.48
2023-06-29T07:33:55.146Z,23.56
2023-06-29T07:36:23.212Z,23.61
2023-06-29T07:38:52.402Z,23.66
2023-06-29T07:41:22.214Z,23.72
2023-06-29T07:43:52.661Z,23.87
2023-06-29T07:46:20.765Z,23.84
2023-06-29T07:48:49.174Z,23.88
2023-06-29T08:02:39.431Z,24.39
2023-06-29T08:07:39.719Z,24.60
2023-06-29T08:10:08.709Z,24.64
2023-06-29T08:12:36.527Z,24.73
2023-06-29T08:15:04.686Z,24.84
2023-06-29T08:17:32.660Z,24.96
2023-06-29T08:20:02.126Z,25.02
2023-06-29T08:22:30.014Z,25.17
2023-06-29T08:24:57.888Z,25.28
2023-06-29T08:27:25.710Z,25.43
2023-06-29T08:29:54.004Z,25.57
2023-06-29T08:32:21.986Z,25.70
2023-06-29T08:34:49.807Z,25.84
2023-06-29T08:37:18.939Z,25.96
2023-06-29T08:39:46.706Z,25.85
2023-06-29T08:42:14.761Z,25.89
2023-06-29T08:44:42.670Z,25.91
2023-06-29T08:47:13.140Z,25.91
2023-06-29T08:49:43.136Z,26.03
2023-06-29T08:52:15.298Z,26.21
2023-06-29T08:54:47.363Z,26.48
2023-06-29T08:57:17.826Z,26.72
2023-06-29T08:59:47.081Z,26.94
2023-06-29T09:02:15.182Z,27.07
2023-06-29T09:04:45.100Z,27.20
2023-06-29T09:07:13.336Z,27.26
2023-06-29T09:09:41.290Z,27.25
2023-06-29T09:12:22.877Z,27.15
2023-06-29T09:14:50.834Z,27.10
2023-06-29T09:17:19.739Z,27.05
2023-06-29T09:19:55.304Z,27.03
2023-06-29T09:22:23.603Z,26.85
2023-06-29T09:25:03.508Z,26.80
2023-06-29T09:27:37.182Z,26.82
2023-06-29T09:30:06.710Z,26.75
2023-06-29T09:32:39.804Z,26.72
2023-06-29T09:35:09.245Z,26.68
2023-06-29T09:37:38.381Z,26.65
2023-06-29T09:40:11.107Z,26.66
2023-06-29T09:42:42.066Z,26.73
2023-06-29T09:49:40.719Z,26.79
2023-06-29T09:52:09.691Z,26.86
2023-06-29T09:54:37.886Z,26.85
2023-06-29T09:57:06.413Z,26.82
2023-06-29T09:59:36.584Z,26.90
2023-06-29T10:02:05.219Z,26.92
2023-06-29T10:04:33.140Z,27.02
2023-06-29T10:07:07.060Z,27.11
2023-06-29T10:09:38.670Z,27.17
2023-06-29T10:12:09.473Z,27.20
2023-06-29T10:14:39.001Z,27.26
2023-06-29T10:17:13.109Z,27.28
2023-06-29T10:19:45.580Z,27.37
2023-06-29T10:22:17.837Z,27.43
2023-06-29T10:24:49.812Z,27.46
2023-06-29T10:27:18.591Z,27.47
2023-06-29T10:29:50.379Z,27.46
2023-06-29T10:36:05.702Z,27.33
2023-06-29T10:38:34.619Z,27.31
2023-06-29T10:41:02.904Z,27.33
2023-06-29T10:43:30.707Z,27.29
2023-06-29T10:46:01.457Z,27.27
2023-06-29T10:48:47.122Z,27.18
2023-06-29T10:51:16.802Z,27.15
2023-06-29T10:53:49.167Z,27.08
2023-06-29T10:56:31.040Z,27.08
2023-06-29T10:59:00.333Z,27.02
2023-06-29T11:01:30.231Z,26.97
2023-06-29T11:03:58.165Z,26.99
2023-06-29T11:06:34.227Z,26.99
2023-06-29T11:09:03.948Z,26.96
2023-06-29T11:12:20.772Z,26.98
2023-06-29T11:14:49.639Z,27.07
2023-06-29T11:17:21.462Z,27.14
2023-06-29T11:19:49.493Z,27.20
2023-06-29T11:22:17.500Z,27.22
2023-06-29T11:24:45.434Z,27.28
2023-06-29T11:27:13.350Z,27.33
2023-06-29T11:29:41.256Z,27.34
2023-06-29T11:32:11.584Z,27.33
2023-06-29T11:34:41.032Z,27.29
2023-06-29T11:37:15.768Z,27.22
2023-06-29T11:39:44.151Z,27.06
2023-06-29T11:42:12.096Z,26.98
2023-06-29T11:44:40.610Z,26.90
2023-06-29T11:47:31.418Z,26.81
2023-06-29T11:50:01.246Z,26.82
2023-06-29T11:52:31.538Z,26.73
2023-06-29T11:55:00.207Z,26.68
2023-06-29T11:57:28.257Z,26.61
2023-06-29T11:59:56.099Z,26.61
2023-06-29T12:02:25.220Z,26.59
2023-06-29T12:04:57.861Z,26.56
2023-06-29T12:07:46.248Z,26.58
2023-06-29T12:10:15.949Z,26.63
2023-06-29T12:12:45.290Z,26.65
2023-06-29T12:15:17.560Z,26.65
2023-06-29T12:20:19.243Z,26.72
2023-06-29T12:26:29.242Z,26.93
2023-06-29T12:28:58.076Z,27.10
2023-06-29T12:31:30.550Z,27.28
2023-06-29T12:33:59.116Z,27.48
2023-06-29T12:36:27.182Z,27.65
2023-06-29T12:38:55.315Z,27.77
2023-06-29T12:41:23.305Z,27.86
2023-06-29T12:43:52.500Z,28.05
2023-06-29T12:46:23.903Z,28.18
2023-06-29T12:48:51.753Z,28.32
2023-06-29T12:51:19.589Z,28.33
2023-06-29T12:53:47.505Z,28.36
2023-06-29T12:56:15.653Z,28.45
2023-06-29T12:58:43.459Z,28.47
2023-06-29T13:01:12.717Z,28.45
2023-06-29T13:03:40.739Z,28.40
2023-06-29T13:06:08.732Z,28.37
2023-06-29T13:08:36.721Z,28.31
2023-06-29T13:11:05.763Z,28.34
2023-06-29T13:13:33.623Z,28.38
2023-06-29T13:16:01.522Z,28.39
2023-06-29T13:18:30.778Z,28.41
2023-06-29T13:20:58.606Z,28.48
2023-06-29T13:23:26.403Z,28.54
2023-06-29T13:26:49.704Z,28.65
2023-06-29T13:29:18.443Z,28.78
2023-06-29T13:31:46.166Z,28.79
2023-06-29T13:34:15.463Z,28.91
2023-06-29T13:36:43.336Z,29.13
2023-06-29T13:39:11.187Z,29.23
2023-06-29T13:45:26.415Z,29.54
2023-06-29T13:48:01.094Z,29.55
2023-06-29T13:50:40.873Z,29.50
2023-06-29T13:53:09.576Z,29.50
2023-06-29T13:55:37.699Z,29.50
2023-06-29T13:58:05.507Z,29.52
2023-06-29T14:01:19.080Z,29.49
2023-06-29T14:03:47.767Z,29.42
2023-06-29T14:06:19.780Z,29.17
2023-06-29T14:08:47.555Z,28.95
2023-06-29T14:11:15.463Z,28.91
2023-06-29T14:13:43.359Z,28.87
2023-06-29T14:16:14.336Z,28.72
2023-06-29T14:18:42.417Z,28.66
2023-06-29T14:21:13.205Z,28.58
2023-06-29T14:23:42.263Z,28.50
2023-06-29T14:26:10.031Z,28.45
2023-06-29T14:29:56.210Z,28.43
2023-06-29T14:32:23.990Z,28.42
2023-06-29T14:34:51.765Z,28.48
2023-06-29T14:37:19.658Z,28.47
2023-06-29T14:39:48.866Z,28.56
2023-06-29T14:42:16.676Z,28.60
2023-06-29T14:44:45.067Z,28.64
2023-06-29T14:47:13.513Z,28.65
2023-06-29T14:49:41.392Z,28.65
2023-06-29T14:52:09.550Z,28.67
2023-06-29T14:54:38.444Z,28.67
2023-06-29T14:57:07.961Z,28.76
2023-06-29T14:59:57.197Z,28.89
2023-06-29T15:02:25.526Z,28.88
2023-06-29T15:04:53.381Z,28.72
2023-06-29T15:07:22.373Z,28.66
2023-06-29T15:09:52.087Z,28.63
2023-06-29T15:12:21.204Z,28.56
2023-06-29T15:15:32.530Z,28.49
2023-06-29T15:18:00.996Z,28.45
2023-06-29T15:20:28.848Z,28.44
2023-06-29T15:22:56.656Z,28.42
2023-06-29T15:25:24.551Z,28.37
2023-06-29T15:27:54.033Z,28.40
2023-06-29T15:30:21.782Z,28.46
2023-06-29T15:32:49.626Z,28.50
2023-06-29T15:36:04.110Z,28.51
2023-06-29T15:38:32.412Z,28.54
2023-06-29T15:41:00.280Z,28.58
2023-06-29T15:43:29.345Z,28.61
2023-06-29T15:45:57.143Z,28.68
2023-06-29T15:48:26.016Z,28.73
2023-06-29T15:51:18.935Z,28.88
2023-06-29T15:53:46.651Z,28.98
2023-06-29T15:56:14.578Z,28.99
2023-06-29T15:58:43.777Z,28.92
2023-06-29T16:01:11.773Z,28.89
2023-06-29T16:03:40.733Z,28.76
2023-06-29T16:06:08.517Z,28.72
2023-06-29T16:08:36.385Z,28.68
2023-06-29T16:11:04.198Z,28.64
2023-06-29T16:13:32.022Z,28.63
2023-06-29T16:16:01.166Z,28.55
2023-06-29T16:18:29.873Z,28.58
2023-06-29T16:20:57.698Z,28.59
2023-06-29T16:23:25.503Z,28.60
2023-06-29T16:25:53.523Z,28.57
2023-06-29T16:28:21.283Z,28.52
2023-06-29T16:30:49.265Z,28.50
2023-06-29T16:33:18.910Z,28.48
2023-06-29T16:35:46.873Z,28.44
2023-06-29T16:38:14.865Z,28.49
2023-06-29T16:40:42.700Z,28.45
2023-06-29T16:43:10.464Z,28.44
2023-06-29T16:46:33.983Z,28.39
2023-06-29T16:49:03.200Z,28.28
2023-06-29T16:51:31.697Z,28.18
2023-06-29T16:53:59.915Z,28.14
2023-06-29T16:56:29.636Z,28.04
2023-06-29T16:58:57.650Z,28.03
2023-06-29T17:01:25.770Z,28.06
2023-06-29T17:03:53.744Z,28.09
2023-06-29T17:06:23.021Z,28.06
2023-06-29T17:08:52.397Z,28.07
2023-06-29T17:11:20.617Z,28.05
2023-06-29T17:17:34.970Z,27.98
2023-06-29T17:20:03.852Z,27.93
2023-06-29T17:22:33.178Z,27.92
2023-06-29T17:25:00.970Z,27.90
2023-06-29T17:27:28.766Z,27.83
2023-06-29T17:29:56.529Z,27.80
2023-06-29T17:32:24.382Z,27.72
2023-06-29T17:35:13.937Z,27.67
2023-06-29T17:37:43.821Z,27.63
2023-06-29T17:40:11.838Z,27.57
2023-06-29T17:42:39.576Z,27.50
2023-06-29T17:45:09.824Z,27.42
2023-06-29T17:48:35.821Z,27.38
2023-06-29T17:51:14.007Z,27.33
2023-06-29T17:53:44.665Z,27.28
2023-06-29T17:56:15.381Z,27.23
2023-06-29T17:58:44.867Z,27.24
2023-06-29T18:01:13.197Z,27.19
2023-06-29T18:03:50.127Z,27.09
2023-06-29T18:06:19.398Z,27.02
2023-06-29T18:08:48.804Z,26.96
2023-06-29T18:11:16.598Z,26.89
2023-06-29T18:13:45.156Z,26.82
2023-06-29T18:16:13.078Z,26.79
2023-06-29T18:19:03.609Z,26.77
2023-06-29T18:21:31.349Z,26.73
2023-06-29T18:24:00.557Z,26.72
2023-06-29T18:26:28.324Z,26.73
2023-06-29T18:28:56.209Z,26.68
2023-06-29T18:31:24.114Z,26.62
2023-06-29T18:33:51.978Z,26.58
2023-06-29T18:36:19.946Z,26.57
2023-06-29T18:38:47.754Z,26.54
2023-06-29T18:41:35.159Z,26.53
2023-06-29T18:44:04.346Z,26.52
2023-06-29T18:46:32.880Z,26.52
2023-06-29T18:49:00.742Z,26.51
2023-06-29T18:51:28.525Z,26.49
2023-06-29T18:53:56.347Z,26.46
2023-06-29T18:56:24.668Z,26.43
2023-06-29T18:58:53.860Z,26.40
2023-06-29T19:01:21.754Z,26.35
2023-06-29T19:03:49.780Z,26.33
2023-06-29T19:06:17.800Z,26.32
2023-06-29T19:08:45.723Z,26.28
2023-06-29T19:11:13.625Z,26.25
2023-06-29T19:13:41.416Z,26.22
2023-06-29T19:16:10.628Z,26.21
2023-06-29T19:18:38.457Z,26.18
2023-06-29T19:21:06.509Z,26.12
2023-06-29T19:23:34.399Z,26.07
2023-06-29T19:26:02.173Z,26.02
2023-06-29T19:28:30.096Z,26.00
2023-06-29T19:30:57.872Z,25.95
2023-06-29T19:33:27.037Z,25.91
2023-06-29T19:35:54.958Z,25.84
2023-06-29T19:38:23.212Z,25.80
2023-06-29T19:40:51.062Z,25.70
2023-06-29T19:43:18.865Z,25.67
2023-06-29T19:45:48.591Z,25.60
2023-06-29T19:48:16.948Z,25.51
2023-06-29T19:50:46.428Z,25.46
2023-06-29T19:53:14.870Z,25.40
2023-06-29T19:55:43.202Z,25.30
2023-06-29T19:58:11.445Z,25.24
2023-06-29T20:00:39.479Z,25.20
2023-06-29T20:03:07.464Z,25.13
2023-06-29T20:05:35.855Z,25.08
2023-06-29T20:08:05.120Z,25.05
2023-06-29T20:10:32.921Z,25.06
2023-06-29T20:13:01.028Z,25.02
2023-06-29T20:15:28.839Z,25.00
2023-06-29T20:17:56.734Z,25.00
2023-06-29T20:20:25.478Z,24.95
2023-06-29T20:22:53.407Z,24.92
2023-06-29T20:25:22.581Z,24.94
2023-06-29T20:27:50.405Z,24.89
2023-06-29T20:30:18.232Z,24.84
2023-06-29T20:32:46.069Z,24.82
2023-06-29T20:39:01.388Z,24.73
2023-06-29T20:41:30.740Z,24.68
2023-06-29T20:43:58.586Z,24.59
2023-06-29T20:46:28.296Z,24.50
2023-06-29T20:48:56.146Z,24.39
2023-06-29T20:51:24.042Z,24.28
2023-06-29T20:53:51.960Z,24.20
2023-06-29T20:56:20.719Z,24.09
2023-06-29T20:58:49.987Z,23.95
2023-06-29T21:01:18.029Z,23.84
2023-06-29T21:03:46.214Z,23.76
2023-06-29T21:06:14.424Z,23.67
2023-06-29T21:08:42.483Z,23.62
2023-06-29T21:11:10.828Z,23.54
2023-06-29T21:13:39.004Z,23.50
2023-06-29T21:16:09.037Z,23.46
2023-06-29T21:18:37.549Z,23.40
2023-06-29T21:21:06.461Z,23.34
2023-06-29T21:23:34.754Z,23.31
2023-06-29T21:26:05.299Z,23.22
2023-06-29T21:28:35.208Z,23.16
2023-06-29T21:31:05.325Z,23.08
2023-06-29T21:33:36.958Z,23.01
2023-06-29T21:36:06.422Z,22.94
2023-06-29T21:38:34.760Z,22.91
2023-06-29T21:41:02.756Z,22.89
2023-06-29T21:43:30.609Z,22.85
2023-06-29T21:45:58.519Z,22.77
2023-06-29T21:48:26.514Z,22.72
2023-06-29T21:50:55.862Z,22.70
2023-06-29T21:53:23.720Z,22.65
2023-06-29T21:55:51.599Z,22.62
2023-06-29T21:58:19.472Z,22.55
2023-06-29T22:00:47.712Z,22.48
2023-06-29T22:03:15.795Z,22.40
2023-06-29T22:05:44.051Z,22.32
2023-06-29T22:08:13.640Z,22.31
2023-06-29T22:10:41.444Z,22.28
2023-06-29T22:13:09.284Z,22.22
2023-06-29T22:15:44.573Z,22.19
2023-06-29T22:18:13.057Z,22.15
2023-06-29T22:20:41.767Z,22.14
2023-06-29T22:23:09.588Z,22.10
2023-06-29T22:25:38.767Z,22.03
2023-06-29T22:28:08.021Z,22.00
2023-06-29T22:30:36.036Z,21.99
2023-06-29T22:33:04.053Z,21.95
2023-06-29T22:35:32.190Z,21.91
2023-06-29T22:38:00.081Z,21.87
2023-06-29T22:40:27.911Z,21.85
2023-06-29T22:42:57.222Z,21.80
2023-06-29T22:45:25.253Z,21.70
2023-06-29T22:47:53.124Z,21.63
2023-06-29T22:50:21.232Z,21.57
2023-06-29T22:52:49.037Z,21.52
2023-06-29T22:55:16.900Z,21.43
2023-06-29T22:57:46.634Z,21.40
2023-06-29T23:00:16.542Z,21.36
2023-06-29T23:02:44.508Z,21.33
2023-06-29T23:05:13.540Z,21.29
2023-06-29T23:07:45.121Z,21.29
2023-06-29T23:10:14.389Z,21.32
2023-06-29T23:12:46.408Z,21.30
2023-06-29T23:15:16.376Z,21.28
2023-06-29T23:17:44.645Z,21.33
2023-06-29T23:20:14.257Z,21.29
2023-06-29T23:22:45.009Z,21.23
2023-06-29T23:25:13.267Z,21.19
2023-06-29T23:27:44.266Z,21.18
2023-06-29T23:30:13.650Z,21.15
2023-06-29T23:32:43.819Z,21.11
2023-06-29T23:35:11.926Z,21.10
2023-06-29T23:37:40.079Z,21.11
2023-06-29T23:40:11.754Z,21.11
2023-06-29T23:42:40.212Z,21.03
2023-06-29T23:45:11.148Z,20.96
2023-06-29T23:47:40.338Z,20.90
2023-06-29T23:50:12.171Z,20.83
2023-06-29T23:52:40.529Z,20.76
2023-06-29T23:55:09.140Z,20.73
2023-06-29T23:57:37.186Z,20.72
